sensor_id;sensor_type;location;lat;lon;timestamp;P1;durP1;ratioP1;P2;durP2;ratioP2
65477;SDS011;53678;39.642;22.430;2022-12-10T00:01:13;63.17;;;30.63;;
65477;SDS011;53678;39.642;22.430;2022-12-10T00:03:41;75.85;;;33.45;;
65477;SDS011;53678;39.642;22.430;2022-12-10T00:06:08;65.50;;;34.88;;
65477;SDS011;53678;39.642;22.430;2022-12-10T00:08:36;56.67;;;32.38;;
65477;SDS011;53678;39.642;22.430;2022-12-10T00:11:03;57.83;;;31.52;;
65477;SDS011;53678;39.642;22.430;2022-12-10T00:13:32;68.28;;;31.75;;
65477;SDS011;53678;39.642;22.430;2022-12-10T00:15:59;68.47;;;31.33;;
65477;SDS011;53678;39.642;22.430;2022-12-10T00:18:26;57.10;;;27.75;;
65477;SDS011;53678;39.642;22.430;2022-12-10T00:20:52;62.40;;;29.75;;
65477;SDS011;53678;39.642;22.430;2022-12-10T00:23:18;49.33;;;28.98;;
65477;SDS011;53678;39.642;22.430;2022-12-10T00:25:44;55.70;;;27.23;;
65477;SDS011;53678;39.642;22.430;2022-12-10T00:28:10;46.63;;;25.92;;
65477;SDS011;53678;39.642;22.430;2022-12-10T00:30:36;43.20;;;25.35;;
65477;SDS011;53678;39.642;22.430;2022-12-10T00:33:02;47.72;;;25.15;;
65477;SDS011;53678;39.642;22.430;2022-12-10T00:35:28;40.05;;;24.25;;
65477;SDS011;53678;39.642;22.430;2022-12-10T00:37:54;42.30;;;23.67;;
65477;SDS011;53678;39.642;22.430;2022-12-10T00:40:21;41.38;;;24.63;;
65477;SDS011;53678;39.642;22.430;2022-12-10T00:42:47;44.28;;;25.33;;
65477;SDS011;53678;39.642;22.430;2022-12-10T00:45:13;47.08;;;25.42;;
65477;SDS011;53678;39.642;22.430;2022-12-10T00:47:39;48.35;;;25.83;;
65477;SDS011;53678;39.642;22.430;2022-12-10T00:50:05;51.95;;;27.90;;
65477;SDS011;53678;39.642;22.430;2022-12-10T00:52:31;49.97;;;25.42;;
65477;SDS011;53678;39.642;22.430;2022-12-10T00:54:57;41.75;;;24.42;;
65477;SDS011;53678;39.642;22.430;2022-12-10T00:57:23;45.35;;;25.20;;
65477;SDS011;53678;39.642;22.430;2022-12-10T00:59:49;39.88;;;23.35;;
65477;SDS011;53678;39.642;22.430;2022-12-10T01:02:15;37.03;;;22.55;;
65477;SDS011;53678;39.642;22.430;2022-12-10T01:04:41;39.13;;;23.85;;
65477;SDS011;53678;39.642;22.430;2022-12-10T01:07:07;44.33;;;25.45;;
65477;SDS011;53678;39.642;22.430;2022-12-10T01:09:35;52.72;;;25.33;;
65477;SDS011;53678;39.642;22.430;2022-12-10T01:12:01;40.72;;;23.85;;
65477;SDS011;53678;39.642;22.430;2022-12-10T01:14:30;51.95;;;28.20;;
65477;SDS011;53678;39.642;22.430;2022-12-10T01:16:58;48.78;;;23.90;;
65477;SDS011;53678;39.642;22.430;2022-12-10T01:19:30;41.92;;;24.35;;
65477;SDS011;53678;39.642;22.430;2022-12-10T01:22:00;44.38;;;23.55;;
65477;SDS011;53678;39.642;22.430;2022-12-10T01:24:28;46.90;;;25.42;;
65477;SDS011;53678;39.642;22.430;2022-12-10T01:26:54;47.80;;;26.73;;
65477;SDS011;53678;39.642;22.430;2022-12-10T01:29:21;42.47;;;23.80;;
65477;SDS011;53678;39.642;22.430;2022-12-10T01:31:49;41.15;;;23.02;;
65477;SDS011;53678;39.642;22.430;2022-12-10T01:34:17;44.55;;;23.75;;
65477;SDS011;53678;39.642;22.430;2022-12-10T01:36:43;39.28;;;22.17;;
65477;SDS011;53678;39.642;22.430;2022-12-10T01:39:12;39.97;;;23.48;;
65477;SDS011;53678;39.642;22.430;2022-12-10T01:41:43;42.75;;;24.85;;
65477;SDS011;53678;39.642;22.430;2022-12-10T01:46:43;46.65;;;25.02;;
65477;SDS011;53678;39.642;22.430;2022-12-10T01:49:15;47.05;;;24.05;;
65477;SDS011;53678;39.642;22.430;2022-12-10T01:51:46;45.15;;;23.45;;
65477;SDS011;53678;39.642;22.430;2022-12-10T01:54:16;40.47;;;23.48;;
65477;SDS011;53678;39.642;22.430;2022-12-10T01:56:47;41.80;;;23.65;;
65477;SDS011;53678;39.642;22.430;2022-12-10T01:59:17;48.78;;;25.35;;
65477;SDS011;53678;39.642;22.430;2022-12-10T02:01:50;40.10;;;23.77;;
65477;SDS011;53678;39.642;22.430;2022-12-10T02:17:44;42.15;;;24.88;;
65477;SDS011;53678;39.642;22.430;2022-12-10T02:20:15;38.78;;;23.50;;
65477;SDS011;53678;39.642;22.430;2022-12-10T02:22:46;41.97;;;23.88;;
65477;SDS011;53678;39.642;22.430;2022-12-10T02:25:20;45.33;;;24.73;;
65477;SDS011;53678;39.642;22.430;2022-12-10T02:28:12;43.63;;;23.85;;
65477;SDS011;53678;39.642;22.430;2022-12-10T02:30:47;44.42;;;24.83;;
65477;SDS011;53678;39.642;22.430;2022-12-10T02:33:16;45.38;;;23.85;;
65477;SDS011;53678;39.642;22.430;2022-12-10T02:35:44;42.13;;;23.67;;
65477;SDS011;53678;39.642;22.430;2022-12-10T02:38:20;43.60;;;24.08;;
65477;SDS011;53678;39.642;22.430;2022-12-10T02:41:04;44.20;;;25.92;;
65477;SDS011;53678;39.642;22.430;2022-12-10T02:43:32;53.22;;;28.77;;
65477;SDS011;53678;39.642;22.430;2022-12-10T02:46:01;44.15;;;25.13;;
65477;SDS011;53678;39.642;22.430;2022-12-10T02:48:30;46.88;;;24.40;;
65477;SDS011;53678;39.642;22.430;2022-12-10T02:50:58;43.92;;;25.02;;
65477;SDS011;53678;39.642;22.430;2022-12-10T02:53:25;50.15;;;27.35;;
65477;SDS011;53678;39.642;22.430;2022-12-10T02:56:12;44.97;;;26.00;;
65477;SDS011;53678;39.642;22.430;2022-12-10T02:58:59;56.53;;;26.17;;
65477;SDS011;53678;39.642;22.430;2022-12-10T03:06:42;51.53;;;27.17;;
65477;SDS011;53678;39.642;22.430;2022-12-10T03:09:27;57.13;;;28.38;;
65477;SDS011;53678;39.642;22.430;2022-12-10T03:12:12;58.53;;;31.88;;
65477;SDS011;53678;39.642;22.430;2022-12-10T03:14:48;63.58;;;32.08;;
65477;SDS011;53678;39.642;22.430;2022-12-10T03:17:14;78.22;;;39.60;;
65477;SDS011;53678;39.642;22.430;2022-12-10T03:19:42;71.53;;;38.63;;
65477;SDS011;53678;39.642;22.430;2022-12-10T03:22:13;77.97;;;38.85;;
65477;SDS011;53678;39.642;22.430;2022-12-10T03:24:41;70.38;;;38.13;;
65477;SDS011;53678;39.642;22.430;2022-12-10T03:27:09;76.72;;;39.40;;
65477;SDS011;53678;39.642;22.430;2022-12-10T03:29:39;64.15;;;37.60;;
65477;SDS011;53678;39.642;22.430;2022-12-10T03:32:10;68.35;;;39.10;;
65477;SDS011;53678;39.642;22.430;2022-12-10T03:34:37;66.32;;;37.55;;
65477;SDS011;53678;39.642;22.430;2022-12-10T03:37:26;63.28;;;34.05;;
65477;SDS011;53678;39.642;22.430;2022-12-10T03:39:53;52.65;;;31.98;;
65477;SDS011;53678;39.642;22.430;2022-12-10T03:42:19;54.95;;;31.08;;
65477;SDS011;53678;39.642;22.430;2022-12-10T03:44:45;55.42;;;33.30;;
65477;SDS011;53678;39.642;22.430;2022-12-10T03:47:14;59.10;;;35.47;;
65477;SDS011;53678;39.642;22.430;2022-12-10T03:49:41;56.17;;;33.88;;
65477;SDS011;53678;39.642;22.430;2022-12-10T03:52:07;57.60;;;32.03;;
65477;SDS011;53678;39.642;22.430;2022-12-10T03:54:33;53.03;;;30.45;;
65477;SDS011;53678;39.642;22.430;2022-12-10T03:56:59;60.65;;;31.15;;
65477;SDS011;53678;39.642;22.430;2022-12-10T03:59:25;57.50;;;30.83;;
65477;SDS011;53678;39.642;22.430;2022-12-10T04:01:51;52.83;;;28.60;;
65477;SDS011;53678;39.642;22.430;2022-12-10T04:04:17;50.63;;;28.45;;
65477;SDS011;53678;39.642;22.430;2022-12-10T04:06:43;52.50;;;30.17;;
65477;SDS011;53678;39.642;22.430;2022-12-10T04:09:11;51.83;;;27.67;;
65477;SDS011;53678;39.642;22.430;2022-12-10T04:11:38;48.75;;;27.77;;
65477;SDS011;53678;39.642;22.430;2022-12-10T04:14:04;50.30;;;26.52;;
65477;SDS011;53678;39.642;22.430;2022-12-10T04:16:49;50.22;;;26.50;;
65477;SDS011;53678;39.642;22.430;2022-12-10T04:19:15;46.83;;;25.77;;
65477;SDS011;53678;39.642;22.430;2022-12-10T04:21:43;51.20;;;26.80;;
65477;SDS011;53678;39.642;22.430;2022-12-10T04:24:29;45.45;;;25.40;;
65477;SDS011;53678;39.642;22.430;2022-12-10T04:27:29;42.58;;;25.80;;
65477;SDS011;53678;39.642;22.430;2022-12-10T04:29:56;52.50;;;28.83;;
65477;SDS011;53678;39.642;22.430;2022-12-10T04:32:24;51.97;;;29.02;;
65477;SDS011;53678;39.642;22.430;2022-12-10T04:34:51;56.20;;;29.02;;
65477;SDS011;53678;39.642;22.430;2022-12-10T04:37:17;49.13;;;26.38;;
65477;SDS011;53678;39.642;22.430;2022-12-10T04:39:44;55.17;;;27.55;;
65477;SDS011;53678;39.642;22.430;2022-12-10T04:42:10;44.15;;;25.67;;
65477;SDS011;53678;39.642;22.430;2022-12-10T04:44:37;40.78;;;23.88;;
65477;SDS011;53678;39.642;22.430;2022-12-10T04:47:04;44.50;;;25.23;;
65477;SDS011;53678;39.642;22.430;2022-12-10T04:49:31;49.50;;;26.63;;
65477;SDS011;53678;39.642;22.430;2022-12-10T04:51:57;45.55;;;25.65;;
65477;SDS011;53678;39.642;22.430;2022-12-10T04:54:23;59.47;;;27.00;;
65477;SDS011;53678;39.642;22.430;2022-12-10T04:56:49;55.17;;;25.95;;
65477;SDS011;53678;39.642;22.430;2022-12-10T04:59:15;44.55;;;27.52;;
65477;SDS011;53678;39.642;22.430;2022-12-10T05:01:42;55.00;;;29.88;;
65477;SDS011;53678;39.642;22.430;2022-12-10T05:04:10;53.88;;;30.48;;
65477;SDS011;53678;39.642;22.430;2022-12-10T05:06:37;54.63;;;31.58;;
65477;SDS011;53678;39.642;22.430;2022-12-10T05:09:04;66.10;;;34.15;;
65477;SDS011;53678;39.642;22.430;2022-12-10T05:11:31;57.70;;;32.47;;
65477;SDS011;53678;39.642;22.430;2022-12-10T05:13:58;68.18;;;37.50;;
65477;SDS011;53678;39.642;22.430;2022-12-10T05:16:25;69.35;;;35.70;;
65477;SDS011;53678;39.642;22.430;2022-12-10T05:18:54;79.03;;;38.35;;
65477;SDS011;53678;39.642;22.430;2022-12-10T05:21:21;70.68;;;37.38;;
65477;SDS011;53678;39.642;22.430;2022-12-10T05:23:49;74.13;;;37.22;;
65477;SDS011;53678;39.642;22.430;2022-12-10T05:26:20;73.60;;;36.72;;
65477;SDS011;53678;39.642;22.430;2022-12-10T05:28:49;56.88;;;34.45;;
65477;SDS011;53678;39.642;22.430;2022-12-10T05:31:28;73.45;;;36.47;;
65477;SDS011;53678;39.642;22.430;2022-12-10T05:33:55;69.07;;;36.90;;
65477;SDS011;53678;39.642;22.430;2022-12-10T05:36:24;70.30;;;35.97;;
65477;SDS011;53678;39.642;22.430;2022-12-10T05:38:52;70.45;;;35.72;;
65477;SDS011;53678;39.642;22.430;2022-12-10T05:41:21;62.17;;;34.30;;
65477;SDS011;53678;39.642;22.430;2022-12-10T05:43:53;63.67;;;34.55;;
65477;SDS011;53678;39.642;22.430;2022-12-10T05:46:24;81.65;;;34.55;;
65477;SDS011;53678;39.642;22.430;2022-12-10T05:48:52;65.13;;;34.78;;
65477;SDS011;53678;39.642;22.430;2022-12-10T05:51:23;58.78;;;32.90;;
65477;SDS011;53678;39.642;22.430;2022-12-10T05:53:51;50.78;;;29.38;;
65477;SDS011;53678;39.642;22.430;2022-12-10T05:56:19;67.88;;;31.55;;
65477;SDS011;53678;39.642;22.430;2022-12-10T05:58:47;50.25;;;29.33;;
65477;SDS011;53678;39.642;22.430;2022-12-10T06:01:16;60.20;;;31.60;;
65477;SDS011;53678;39.642;22.430;2022-12-10T06:03:44;68.93;;;33.95;;
65477;SDS011;53678;39.642;22.430;2022-12-10T06:06:10;73.35;;;34.85;;
65477;SDS011;53678;39.642;22.430;2022-12-10T06:08:37;55.88;;;31.73;;
65477;SDS011;53678;39.642;22.430;2022-12-10T06:11:06;58.58;;;33.28;;
65477;SDS011;53678;39.642;22.430;2022-12-10T06:13:34;59.95;;;32.95;;
65477;SDS011;53678;39.642;22.430;2022-12-10T06:16:05;58.22;;;31.15;;
65477;SDS011;53678;39.642;22.430;2022-12-10T06:18:33;64.30;;;31.63;;
65477;SDS011;53678;39.642;22.430;2022-12-10T06:20:59;61.42;;;34.53;;
65477;SDS011;53678;39.642;22.430;2022-12-10T06:23:29;59.38;;;32.92;;
65477;SDS011;53678;39.642;22.430;2022-12-10T06:25:55;66.78;;;35.78;;
65477;SDS011;53678;39.642;22.430;2022-12-10T06:28:21;65.55;;;35.75;;
65477;SDS011;53678;39.642;22.430;2022-12-10T06:30:47;63.47;;;34.40;;
65477;SDS011;53678;39.642;22.430;2022-12-10T06:33:13;55.72;;;34.15;;
65477;SDS011;53678;39.642;22.430;2022-12-10T06:35:39;58.00;;;34.13;;
65477;SDS011;53678;39.642;22.430;2022-12-10T06:38:05;64.75;;;34.38;;
65477;SDS011;53678;39.642;22.430;2022-12-10T06:40:30;83.75;;;36.38;;
65477;SDS011;53678;39.642;22.430;2022-12-10T06:42:56;64.10;;;36.92;;
65477;SDS011;53678;39.642;22.430;2022-12-10T06:45:22;60.55;;;32.75;;
65477;SDS011;53678;39.642;22.430;2022-12-10T06:47:48;58.05;;;33.63;;
65477;SDS011;53678;39.642;22.430;2022-12-10T06:50:14;54.90;;;34.75;;
65477;SDS011;53678;39.642;22.430;2022-12-10T06:52:41;57.20;;;34.42;;
65477;SDS011;53678;39.642;22.430;2022-12-10T06:55:08;63.50;;;33.83;;
65477;SDS011;53678;39.642;22.430;2022-12-10T06:57:34;78.82;;;35.55;;
65477;SDS011;53678;39.642;22.430;2022-12-10T07:00:01;72.72;;;38.38;;
65477;SDS011;53678;39.642;22.430;2022-12-10T07:02:28;79.43;;;38.55;;
65477;SDS011;53678;39.642;22.430;2022-12-10T07:04:54;74.65;;;39.13;;
65477;SDS011;53678;39.642;22.430;2022-12-10T07:07:22;80.28;;;39.15;;
65477;SDS011;53678;39.642;22.430;2022-12-10T07:09:48;63.20;;;37.00;;
65477;SDS011;53678;39.642;22.430;2022-12-10T07:12:14;62.60;;;35.60;;
65477;SDS011;53678;39.642;22.430;2022-12-10T07:14:40;65.40;;;38.58;;
65477;SDS011;53678;39.642;22.430;2022-12-10T07:17:06;66.43;;;35.97;;
65477;SDS011;53678;39.642;22.430;2022-12-10T07:19:32;61.03;;;35.22;;
65477;SDS011;53678;39.642;22.430;2022-12-10T07:21:58;67.43;;;34.15;;
65477;SDS011;53678;39.642;22.430;2022-12-10T07:24:24;72.57;;;37.42;;
65477;SDS011;53678;39.642;22.430;2022-12-10T07:26:51;58.10;;;34.08;;
65477;SDS011;53678;39.642;22.430;2022-12-10T07:29:18;53.05;;;32.85;;
65477;SDS011;53678;39.642;22.430;2022-12-10T07:31:46;54.50;;;32.35;;
65477;SDS011;53678;39.642;22.430;2022-12-10T07:34:13;50.65;;;31.45;;
65477;SDS011;53678;39.642;22.430;2022-12-10T07:36:40;70.72;;;31.02;;
65477;SDS011;53678;39.642;22.430;2022-12-10T07:39:07;49.35;;;29.05;;
65477;SDS011;53678;39.642;22.430;2022-12-10T07:41:33;58.63;;;28.77;;
65477;SDS011;53678;39.642;22.430;2022-12-10T07:44:02;52.13;;;29.40;;
65477;SDS011;53678;39.642;22.430;2022-12-10T07:46:30;48.97;;;27.70;;
65477;SDS011;53678;39.642;22.430;2022-12-10T07:48:59;70.63;;;27.70;;
65477;SDS011;53678;39.642;22.430;2022-12-10T07:51:26;57.50;;;24.05;;
65477;SDS011;53678;39.642;22.430;2022-12-10T07:53:52;43.40;;;22.50;;
65477;SDS011;53678;39.642;22.430;2022-12-10T07:56:19;44.08;;;22.25;;
65477;SDS011;53678;39.642;22.430;2022-12-10T07:58:48;42.05;;;22.70;;
65477;SDS011;53678;39.642;22.430;2022-12-10T08:01:15;40.45;;;23.27;;
65477;SDS011;53678;39.642;22.430;2022-12-10T08:03:43;40.67;;;23.00;;
65477;SDS011;53678;39.642;22.430;2022-12-10T08:06:14;45.97;;;23.60;;
65477;SDS011;53678;39.642;22.430;2022-12-10T08:08:43;47.10;;;23.75;;
65477;SDS011;53678;39.642;22.430;2022-12-10T08:11:10;51.67;;;24.17;;
65477;SDS011;53678;39.642;22.430;2022-12-10T08:13:37;35.67;;;22.95;;
65477;SDS011;53678;39.642;22.430;2022-12-10T08:16:10;41.58;;;22.80;;
65477;SDS011;53678;39.642;22.430;2022-12-10T08:18:36;41.00;;;22.30;;
65477;SDS011;53678;39.642;22.430;2022-12-10T08:21:08;40.30;;;22.55;;
65477;SDS011;53678;39.642;22.430;2022-12-10T08:23:36;44.42;;;22.77;;
65477;SDS011;53678;39.642;22.430;2022-12-10T08:26:07;39.90;;;19.77;;
65477;SDS011;53678;39.642;22.430;2022-12-10T08:28:34;32.15;;;17.10;;
65477;SDS011;53678;39.642;22.430;2022-12-10T08:31:04;40.13;;;16.80;;
65477;SDS011;53678;39.642;22.430;2022-12-10T08:33:32;33.17;;;16.48;;
65477;SDS011;53678;39.642;22.430;2022-12-10T08:36:00;41.70;;;17.85;;
65477;SDS011;53678;39.642;22.430;2022-12-10T08:38:28;37.78;;;17.40;;
65477;SDS011;53678;39.642;22.430;2022-12-10T08:40:55;33.72;;;16.55;;
65477;SDS011;53678;39.642;22.430;2022-12-10T08:43:22;35.92;;;16.35;;
65477;SDS011;53678;39.642;22.430;2022-12-10T08:45:47;34.05;;;16.27;;
65477;SDS011;53678;39.642;22.430;2022-12-10T08:48:13;31.15;;;16.20;;
65477;SDS011;53678;39.642;22.430;2022-12-10T08:50:39;30.83;;;14.88;;
65477;SDS011;53678;39.642;22.430;2022-12-10T08:53:06;42.80;;;16.15;;
65477;SDS011;53678;39.642;22.430;2022-12-10T08:55:37;27.20;;;13.93;;
65477;SDS011;53678;39.642;22.430;2022-12-10T08:58:04;25.00;;;13.88;;
65477;SDS011;53678;39.642;22.430;2022-12-10T09:00:34;26.73;;;15.02;;
65477;SDS011;53678;39.642;22.430;2022-12-10T09:03:02;35.20;;;17.02;;
65477;SDS011;53678;39.642;22.430;2022-12-10T09:05:28;40.40;;;17.95;;
65477;SDS011;53678;39.642;22.430;2022-12-10T09:07:54;37.95;;;17.50;;
65477;SDS011;53678;39.642;22.430;2022-12-10T09:10:20;31.80;;;16.48;;
65477;SDS011;53678;39.642;22.430;2022-12-10T09:12:47;31.88;;;15.73;;
65477;SDS011;53678;39.642;22.430;2022-12-10T09:15:13;27.20;;;15.05;;
65477;SDS011;53678;39.642;22.430;2022-12-10T09:17:39;28.73;;;15.95;;
65477;SDS011;53678;39.642;22.430;2022-12-10T09:20:05;30.58;;;18.40;;
65477;SDS011;53678;39.642;22.430;2022-12-10T09:22:31;52.63;;;20.05;;
65477;SDS011;53678;39.642;22.430;2022-12-10T09:24:58;45.65;;;18.20;;
65477;SDS011;53678;39.642;22.430;2022-12-10T09:27:23;49.17;;;18.10;;
65477;SDS011;53678;39.642;22.430;2022-12-10T09:29:51;42.63;;;19.38;;
65477;SDS011;53678;39.642;22.430;2022-12-10T09:32:18;41.00;;;19.35;;
65477;SDS011;53678;39.642;22.430;2022-12-10T09:34:44;41.80;;;19.85;;
65477;SDS011;53678;39.642;22.430;2022-12-10T09:37:10;48.90;;;18.70;;
65477;SDS011;53678;39.642;22.430;2022-12-10T09:39:36;32.80;;;15.10;;
65477;SDS011;53678;39.642;22.430;2022-12-10T09:42:09;30.73;;;15.00;;
65477;SDS011;53678;39.642;22.430;2022-12-10T09:47:24;32.65;;;13.88;;
65477;SDS011;53678;39.642;22.430;2022-12-10T09:52:41;24.20;;;10.57;;
65477;SDS011;53678;39.642;22.430;2022-12-10T09:55:18;21.73;;;10.60;;
65477;SDS011;53678;39.642;22.430;2022-12-10T09:57:48;33.40;;;12.38;;
65477;SDS011;53678;39.642;22.430;2022-12-10T10:00:23;29.70;;;11.23;;
65477;SDS011;53678;39.642;22.430;2022-12-10T10:03:02;27.15;;;11.75;;
65477;SDS011;53678;39.642;22.430;2022-12-10T10:05:29;23.27;;;11.43;;
65477;SDS011;53678;39.642;22.430;2022-12-10T10:08:01;28.45;;;10.68;;
65477;SDS011;53678;39.642;22.430;2022-12-10T10:13:01;21.70;;;12.57;;
65477;SDS011;53678;39.642;22.430;2022-12-10T10:15:40;25.63;;;13.40;;
65477;SDS011;53678;39.642;22.430;2022-12-10T10:18:11;50.38;;;17.45;;
65477;SDS011;53678;39.642;22.430;2022-12-10T10:20:46;31.52;;;15.80;;
65477;SDS011;53678;39.642;22.430;2022-12-10T10:23:14;44.55;;;17.98;;
65477;SDS011;53678;39.642;22.430;2022-12-10T10:25:43;36.95;;;17.00;;
65477;SDS011;53678;39.642;22.430;2022-12-10T10:28:11;34.90;;;16.88;;
65477;SDS011;53678;39.642;22.430;2022-12-10T10:30:39;33.38;;;17.55;;
65477;SDS011;53678;39.642;22.430;2022-12-10T10:33:10;40.58;;;18.95;;
65477;SDS011;53678;39.642;22.430;2022-12-10T10:35:48;33.17;;;17.17;;
65477;SDS011;53678;39.642;22.430;2022-12-10T10:38:22;34.45;;;16.98;;
65477;SDS011;53678;39.642;22.430;2022-12-10T10:40:55;32.03;;;16.67;;
65477;SDS011;53678;39.642;22.430;2022-12-10T10:45:58;30.65;;;13.90;;
65477;SDS011;53678;39.642;22.430;2022-12-10T10:48:31;32.95;;;15.48;;
65477;SDS011;53678;39.642;22.430;2022-12-10T10:56:29;39.55;;;16.85;;
65477;SDS011;53678;39.642;22.430;2022-12-10T10:59:05;27.25;;;14.95;;
65477;SDS011;53678;39.642;22.430;2022-12-10T11:01:45;38.15;;;16.73;;
65477;SDS011;53678;39.642;22.430;2022-12-10T11:05:03;37.20;;;15.50;;
65477;SDS011;53678;39.642;22.430;2022-12-10T11:09:57;41.17;;;13.90;;
65477;SDS011;53678;39.642;22.430;2022-12-10T11:12:34;34.00;;;14.43;;
65477;SDS011;53678;39.642;22.430;2022-12-10T11:17:48;28.48;;;14.63;;
65477;SDS011;53678;39.642;22.430;2022-12-10T11:20:20;32.35;;;13.63;;
65477;SDS011;53678;39.642;22.430;2022-12-10T11:22:56;26.52;;;10.23;;
65477;SDS011;53678;39.642;22.430;2022-12-10T11:34:18;27.15;;;11.30;;
65477;SDS011;53678;39.642;22.430;2022-12-10T11:36:53;27.98;;;10.23;;
65477;SDS011;53678;39.642;22.430;2022-12-10T11:47:44;24.92;;;9.93;;
65477;SDS011;53678;39.642;22.430;2022-12-10T11:50:48;31.10;;;10.35;;
65477;SDS011;53678;39.642;22.430;2022-12-10T11:56:17;34.90;;;9.33;;
65477;SDS011;53678;39.642;22.430;2022-12-10T12:07:29;24.75;;;9.07;;
65477;SDS011;53678;39.642;22.430;2022-12-10T12:15:29;30.55;;;9.77;;
65477;SDS011;53678;39.642;22.430;2022-12-10T12:17:59;25.90;;;9.10;;
65477;SDS011;53678;39.642;22.430;2022-12-10T12:20:31;21.25;;;8.98;;
65477;SDS011;53678;39.642;22.430;2022-12-10T12:23:24;28.15;;;9.50;;
65477;SDS011;53678;39.642;22.430;2022-12-10T12:26:09;18.27;;;8.38;;
65477;SDS011;53678;39.642;22.430;2022-12-10T12:28:46;19.90;;;6.78;;
65477;SDS011;53678;39.642;22.430;2022-12-10T12:31:25;17.70;;;6.40;;
65477;SDS011;53678;39.642;22.430;2022-12-10T12:36:42;19.63;;;8.50;;
65477;SDS011;53678;39.642;22.430;2022-12-10T12:39:23;30.15;;;10.05;;
65477;SDS011;53678;39.642;22.430;2022-12-10T12:42:01;26.27;;;8.98;;
65477;SDS011;53678;39.642;22.430;2022-12-10T12:50:22;15.93;;;7.68;;
65477;SDS011;53678;39.642;22.430;2022-12-10T12:52:59;30.17;;;10.02;;
65477;SDS011;53678;39.642;22.430;2022-12-10T13:01:13;22.95;;;8.75;;
65477;SDS011;53678;39.642;22.430;2022-12-10T13:03:50;14.57;;;7.50;;
65477;SDS011;53678;39.642;22.430;2022-12-10T13:14:03;16.55;;;6.95;;
65477;SDS011;53678;39.642;22.430;2022-12-10T13:32:16;17.88;;;5.95;;
65477;SDS011;53678;39.642;22.430;2022-12-10T13:37:35;28.25;;;8.27;;
65477;SDS011;53678;39.642;22.430;2022-12-10T13:42:35;20.02;;;5.50;;
65477;SDS011;53678;39.642;22.430;2022-12-10T13:59:25;15.60;;;5.35;;
65477;SDS011;53678;39.642;22.430;2022-12-10T14:07:12;19.70;;;4.88;;
65477;SDS011;53678;39.642;22.430;2022-12-10T14:09:43;13.38;;;4.88;;
65477;SDS011;53678;39.642;22.430;2022-12-10T14:12:17;13.50;;;5.50;;
65477;SDS011;53678;39.642;22.430;2022-12-10T14:14:52;24.52;;;9.57;;
65477;SDS011;53678;39.642;22.430;2022-12-10T14:17:38;22.63;;;10.68;;
65477;SDS011;53678;39.642;22.430;2022-12-10T14:20:08;24.05;;;9.45;;
65477;SDS011;53678;39.642;22.430;2022-12-10T14:22:48;14.52;;;7.45;;
65477;SDS011;53678;39.642;22.430;2022-12-10T14:25:17;22.48;;;8.52;;
65477;SDS011;53678;39.642;22.430;2022-12-10T14:27:47;22.13;;;8.63;;
65477;SDS011;53678;39.642;22.430;2022-12-10T14:32:43;16.70;;;5.15;;
65477;SDS011;53678;39.642;22.430;2022-12-10T14:35:15;14.70;;;4.35;;
65477;SDS011;53678;39.642;22.430;2022-12-10T14:37:46;16.55;;;4.97;;
65477;SDS011;53678;39.642;22.430;2022-12-10T14:43:10;12.52;;;4.25;;
65477;SDS011;53678;39.642;22.430;2022-12-10T14:45:46;15.55;;;5.93;;
65477;SDS011;53678;39.642;22.430;2022-12-10T14:48:20;32.30;;;7.60;;
65477;SDS011;53678;39.642;22.430;2022-12-10T14:50:47;18.42;;;8.02;;
65477;SDS011;53678;39.642;22.430;2022-12-10T14:53:17;20.08;;;6.50;;
65477;SDS011;53678;39.642;22.430;2022-12-10T14:55:55;17.27;;;7.43;;
65477;SDS011;53678;39.642;22.430;2022-12-10T15:01:00;11.52;;;4.72;;
65477;SDS011;53678;39.642;22.430;2022-12-10T15:03:27;14.38;;;5.40;;
65477;SDS011;53678;39.642;22.430;2022-12-10T15:05:58;18.38;;;6.00;;
65477;SDS011;53678;39.642;22.430;2022-12-10T15:08:26;16.48;;;6.55;;
65477;SDS011;53678;39.642;22.430;2022-12-10T15:10:57;20.92;;;8.50;;
65477;SDS011;53678;39.642;22.430;2022-12-10T15:13:33;36.95;;;9.93;;
65477;SDS011;53678;39.642;22.430;2022-12-10T15:16:04;11.13;;;5.35;;
65477;SDS011;53678;39.642;22.430;2022-12-10T15:18:32;17.25;;;6.22;;
65477;SDS011;53678;39.642;22.430;2022-12-10T15:22:01;17.65;;;7.10;;
65477;SDS011;53678;39.642;22.430;2022-12-10T15:24:43;14.07;;;7.90;;
65477;SDS011;53678;39.642;22.430;2022-12-10T15:27:19;20.45;;;10.48;;
65477;SDS011;53678;39.642;22.430;2022-12-10T15:29:47;25.80;;;15.73;;
65477;SDS011;53678;39.642;22.430;2022-12-10T15:32:15;26.42;;;12.05;;
65477;SDS011;53678;39.642;22.430;2022-12-10T15:34:52;29.30;;;12.48;;
65477;SDS011;53678;39.642;22.430;2022-12-10T15:37:24;24.42;;;10.23;;
65477;SDS011;53678;39.642;22.430;2022-12-10T15:39:54;17.67;;;8.18;;
65477;SDS011;53678;39.642;22.430;2022-12-10T15:45:03;24.95;;;8.48;;
65477;SDS011;53678;39.642;22.430;2022-12-10T15:47:40;20.83;;;7.50;;
65477;SDS011;53678;39.642;22.430;2022-12-10T15:50:06;22.48;;;7.30;;
65477;SDS011;53678;39.642;22.430;2022-12-10T15:52:32;22.90;;;6.93;;
65477;SDS011;53678;39.642;22.430;2022-12-10T15:54:58;20.55;;;7.30;;
65477;SDS011;53678;39.642;22.430;2022-12-10T15:57:29;17.60;;;8.25;;
65477;SDS011;53678;39.642;22.430;2022-12-10T16:00:07;19.67;;;8.27;;
65477;SDS011;53678;39.642;22.430;2022-12-10T16:02:40;21.75;;;8.40;;
65477;SDS011;53678;39.642;22.430;2022-12-10T16:05:19;16.20;;;7.95;;
65477;SDS011;53678;39.642;22.430;2022-12-10T16:07:45;23.55;;;10.02;;
65477;SDS011;53678;39.642;22.430;2022-12-10T16:10:15;20.55;;;8.00;;
65477;SDS011;53678;39.642;22.430;2022-12-10T16:12:45;19.33;;;7.93;;
65477;SDS011;53678;39.642;22.430;2022-12-10T16:15:18;20.45;;;6.57;;
65477;SDS011;53678;39.642;22.430;2022-12-10T16:17:49;12.50;;;6.00;;
65477;SDS011;53678;39.642;22.430;2022-12-10T16:20:24;14.55;;;6.22;;
65477;SDS011;53678;39.642;22.430;2022-12-10T16:22:55;17.50;;;6.78;;
65477;SDS011;53678;39.642;22.430;2022-12-10T16:25:23;18.98;;;7.68;;
65477;SDS011;53678;39.642;22.430;2022-12-10T16:27:50;23.73;;;9.32;;
65477;SDS011;53678;39.642;22.430;2022-12-10T16:30:19;22.65;;;8.93;;
65477;SDS011;53678;39.642;22.430;2022-12-10T16:32:47;23.40;;;9.80;;
65477;SDS011;53678;39.642;22.430;2022-12-10T16:35:13;20.83;;;7.78;;
65477;SDS011;53678;39.642;22.430;2022-12-10T16:37:44;26.05;;;9.77;;
65477;SDS011;53678;39.642;22.430;2022-12-10T16:40:14;22.25;;;10.60;;
65477;SDS011;53678;39.642;22.430;2022-12-10T16:42:42;22.10;;;11.88;;
65477;SDS011;53678;39.642;22.430;2022-12-10T16:45:12;26.90;;;13.45;;
65477;SDS011;53678;39.642;22.430;2022-12-10T16:47:40;25.67;;;13.90;;
65477;SDS011;53678;39.642;22.430;2022-12-10T16:50:06;26.60;;;13.00;;
65477;SDS011;53678;39.642;22.430;2022-12-10T16:52:32;25.90;;;13.18;;
65477;SDS011;53678;39.642;22.430;2022-12-10T16:54:58;33.88;;;15.07;;
65477;SDS011;53678;39.642;22.430;2022-12-10T16:57:24;28.55;;;13.68;;